Time;durP1;ratioP1;P1;durP2;ratioP2;P2;SDS_P1;SDS_P2;PMS_P1;PMS_P2;Temp;Humidity;BMP_temperature;BMP_pressure;BME280_temperature;BME280_humidity;BME280_pressure;Samples;Min_cycle;Max_cycle;Signal;HPM_P1;HPM_P2
2023/09/06 06:00:15;;;;;;;23.50;12.23;;;;;;;;;;6001059;23;21517;31
2023/09/06 06:02:44;;;;;;;28.90;12.40;;;;;;;;;;4889823;29;20829;-76
2023/09/06 06:05:12;;;;;;;24.67;12.97;;;;;;;;;;4897580;29;20423;-75
2023/09/06 06:07:38;;;;;;;22.80;10.90;;;;;;;;;;4897923;29;20502;-76
2023/09/06 06:10:04;;;;;;;22.93;11.40;;;;;;;;;;4911847;29;20408;-76
2023/09/06 06:12:32;;;;;;;36.13;13.33;;;;;;;;;;4921624;23;20431;-76
2023/09/06 06:15:00;;;;;;;22.87;10.87;;;;;;;;;;4896297;29;20482;-75
2023/09/06 06:17:26;;;;;;;25.60;13.03;;;;;;;;;;4897817;29;20412;-75
2023/09/06 06:19:52;;;;;;;23.67;12.50;;;;;;;;;;4904019;29;20522;-75
2023/09/06 06:22:18;;;;;;;25.97;10.33;;;;;;;;;;4915953;29;20472;-73
2023/09/06 06:24:44;;;;;;;24.40;11.57;;;;;;;;;;4898293;29;20463;-70
2023/09/06 06:27:10;;;;;;;24.57;10.70;;;;;;;;;;4896876;29;20431;-70
2023/09/06 06:29:36;;;;;;;29.20;11.60;;;;;;;;;;4896277;29;20975;-71
2023/09/06 06:32:02;;;;;;;26.83;11.00;;;;;;;;;;4897240;29;20823;-72
2023/09/06 06:34:28;;;;;;;21.50;10.07;;;;;;;;;;4896865;29;20968;-71
2023/09/06 06:36:54;;;;;;;25.03;10.27;;;;;;;;;;4897052;29;20494;-72
2023/09/06 06:39:20;;;;;;;17.60;9.80;;;;;;;;;;4896485;29;20408;-72
2023/09/06 06:41:46;;;;;;;26.10;12.80;;;;;;;;;;4896625;29;20419;-72
2023/09/06 06:44:12;;;;;;;17.57;10.53;;;;;;;;;;4895290;29;20470;-72
2023/09/06 06:46:38;;;;;;;18.50;9.77;;;;;;;;;;4896881;29;20940;-73
2023/09/06 06:49:07;;;;;;;15.77;9.40;;;;;;;;;;4896608;29;20412;-72
2023/09/06 06:51:38;;;;;;;16.37;9.43;;;;;;;;;;4895407;29;20446;-72
2023/09/06 06:54:08;;;;;;;13.10;9.43;;;;;;;;;;4896585;29;20435;-73
2023/09/06 06:56:35;;;;;;;18.60;9.77;;;;;;;;;;4896882;29;20427;-73
2023/09/06 06:59:01;;;;;;;21.80;8.90;;;;;;;;;;4895646;29;20418;-73
2023/09/06 07:01:27;;;;;;;14.57;9.40;;;;;;;;;;4895863;29;20419;-71
2023/09/06 07:03:54;;;;;;;13.40;8.17;;;;;;;;;;4897125;29;20436;-72
2023/09/06 07:06:21;;;;;;;13.10;8.60;;;;;;;;;;4896917;29;20418;-73
2023/09/06 07:08:47;;;;;;;20.17;9.53;;;;;;;;;;4897028;29;20993;-72
2023/09/06 07:11:14;;;;;;;12.37;7.50;;;;;;;;;;4897494;29;20439;-72
2023/09/06 07:13:40;;;;;;;18.27;8.30;;;;;;;;;;4912459;29;20995;-73
2023/09/06 07:16:06;;;;;;;25.27;8.17;;;;;;;;;;4896034;29;20463;-73
2023/09/06 07:18:32;;;;;;;16.13;8.40;;;;;;;;;;4900332;29;20427;-73
2023/09/06 07:20:58;;;;;;;12.23;6.80;;;;;;;;;;4896642;29;20885;-72
2023/09/06 07:23:23;;;;;;;12.07;7.20;;;;;;;;;;4884017;29;20455;-73
2023/09/06 07:25:49;;;;;;;10.90;7.27;;;;;;;;;;4886510;29;20428;-76
2023/09/06 07:28:15;;;;;;;13.90;7.50;;;;;;;;;;4880819;29;20427;-76
2023/09/06 07:30:44;;;;;;;15.33;7.43;;;;;;;;;;4896984;29;20416;-75
2023/09/06 07:33:11;;;;;;;11.40;6.50;;;;;;;;;;4888539;29;20479;-76
2023/09/06 07:35:36;;;;;;;11.23;6.73;;;;;;;;;;4895340;29;21008;-76
2023/09/06 07:38:02;;;;;;;16.33;7.23;;;;;;;;;;4896064;29;20458;-76
2023/09/06 07:40:28;;;;;;;13.80;6.83;;;;;;;;;;4900228;29;20418;-76
2023/09/06 07:42:54;;;;;;;9.93;6.47;;;;;;;;;;4900151;29;20965;-76
2023/09/06 07:45:20;;;;;;;8.97;6.70;;;;;;;;;;4900127;29;20901;-76
2023/09/06 07:47:46;;;;;;;10.10;6.80;;;;;;;;;;4900291;29;20918;-76
2023/09/06 07:50:12;;;;;;;10.83;6.20;;;;;;;;;;4900315;29;20490;-75
2023/09/06 07:52:38;;;;;;;9.67;5.57;;;;;;;;;;4899804;29;20431;-76
2023/09/06 07:55:05;;;;;;;13.37;6.70;;;;;;;;;;4899677;29;20565;-76
2023/09/06 07:57:31;;;;;;;11.23;6.30;;;;;;;;;;4918865;29;20439;-75
2023/09/06 07:59:57;;;;;;;13.93;6.30;;;;;;;;;;4903069;29;20478;-76
2023/09/06 08:02:23;;;;;;;10.67;6.43;;;;;;;;;;4910156;29;20438;-76
2023/09/06 08:04:50;;;;;;;9.67;6.00;;;;;;;;;;4907848;29;20653;-76
2023/09/06 08:07:16;;;;;;;8.57;5.53;;;;;;;;;;4918977;29;20489;-75
2023/09/06 08:09:42;;;;;;;10.17;5.97;;;;;;;;;;4912100;29;20435;-75
2023/09/06 08:12:09;;;;;;;8.10;5.60;;;;;;;;;;4899483;29;20506;-73
2023/09/06 08:14:35;;;;;;;20.63;6.80;;;;;;;;;;4913662;29;20489;-73
2023/09/06 08:17:01;;;;;;;10.23;5.73;;;;;;;;;;4899599;29;20487;-73
2023/09/06 08:19:27;;;;;;;10.00;5.93;;;;;;;;;;4913507;29;20462;-74
2023/09/06 08:21:53;;;;;;;9.93;5.90;;;;;;;;;;4899691;29;20801;-74
2023/09/06 08:24:19;;;;;;;12.10;7.00;;;;;;;;;;4899631;29;20435;-71
2023/09/06 08:26:48;;;;;;;10.93;6.17;;;;;;;;;;4913884;29;20416;-72
2023/09/06 08:29:14;;;;;;;10.87;6.70;;;;;;;;;;4899040;29;20466;-72
2023/09/06 08:31:40;;;;;;;8.30;5.90;;;;;;;;;;4899011;29;20910;-72
2023/09/06 08:34:07;;;;;;;10.20;6.30;;;;;;;;;;4899167;29;20506;-72
2023/09/06 08:36:33;;;;;;;8.77;6.27;;;;;;;;;;4899023;29;20482;-71
2023/09/06 08:39:00;;;;;;;11.30;5.93;;;;;;;;;;4899024;29;20416;-73
2023/09/06 08:41:26;;;;;;;9.33;6.20;;;;;;;;;;4899075;29;20435;-72
2023/09/06 08:43:53;;;;;;;8.27;6.03;;;;;;;;;;4898932;29;20438;-73
2023/09/06 08:46:21;;;;;;;9.43;6.37;;;;;;;;;;4898977;29;20435;-70
2023/09/06 08:48:47;;;;;;;11.90;6.07;;;;;;;;;;4896767;29;20863;-71
2023/09/06 08:51:14;;;;;;;11.23;6.53;;;;;;;;;;4897139;29;20649;-71
2023/09/06 08:53:44;;;;;;;13.50;6.90;;;;;;;;;;4898517;29;20447;-70
2023/09/06 08:56:10;;;;;;;11.03;6.70;;;;;;;;;;4898690;29;20617;-70
2023/09/06 08:58:36;;;;;;;15.83;7.17;;;;;;;;;;4898515;29;20595;-72
2023/09/06 09:01:04;;;;;;;13.67;7.20;;;;;;;;;;4898543;29;20592;-72
2023/09/06 09:03:31;;;;;;;10.13;6.50;;;;;;;;;;4898418;29;20455;-71
2023/09/06 09:06:00;;;;;;;11.33;6.17;;;;;;;;;;4906733;29;20414;-72
2023/09/06 09:08:29;;;;;;;15.53;6.10;;;;;;;;;;4917354;29;20406;-72
2023/09/06 09:11:27;;;;;;;13.00;7.70;;;;;;;;;;4902305;29;20450;-72
2023/09/06 09:13:53;;;;;;;14.60;6.10;;;;;;;;;;4876710;29;20583;-72
2023/09/06 09:16:19;;;;;;;8.60;5.90;;;;;;;;;;4898492;29;20470;-72
2023/09/06 09:18:47;;;;;;;12.17;6.40;;;;;;;;;;4898439;29;20412;-71
2023/09/06 09:21:14;;;;;;;13.63;7.37;;;;;;;;;;4898793;29;20438;-72
2023/09/06 09:23:55;;;;;;;12.50;7.10;;;;;;;;;;4898428;29;20438;-71
2023/09/06 09:26:21;;;;;;;10.47;7.10;;;;;;;;;;4912822;29;20430;-72
2023/09/06 09:28:47;;;;;;;13.20;6.70;;;;;;;;;;4898292;29;20507;-72
2023/09/06 09:31:15;;;;;;;18.67;7.17;;;;;;;;;;4897206;29;20921;-71
2023/09/06 09:33:44;;;;;;;11.50;6.50;;;;;;;;;;4898111;29;20807;-71
2023/09/06 09:36:10;;;;;;;12.57;6.60;;;;;;;;;;4897990;29;20475;-71
2023/09/06 09:38:40;;;;;;;11.83;6.90;;;;;;;;;;4898001;29;20412;-71
2023/09/06 09:41:07;;;;;;;8.63;6.40;;;;;;;;;;4898086;29;20977;-72
2023/09/06 09:43:34;;;;;;;14.87;7.30;;;;;;;;;;4897935;29;20431;-69
2023/09/06 09:46:01;;;;;;;11.10;6.87;;;;;;;;;;4898058;29;20419;-73
2023/09/06 09:48:29;;;;;;;9.53;6.70;;;;;;;;;;4897711;29;20503;-70
2023/09/06 09:50:55;;;;;;;9.50;6.13;;;;;;;;;;4897364;29;20451;-72
2023/09/06 09:53:26;;;;;;;8.97;6.20;;;;;;;;;;4897914;29;20454;-71
2023/09/06 09:55:56;;;;;;;10.73;6.30;;;;;;;;;;4897762;29;20470;-72
2023/09/06 09:58:22;;;;;;;9.97;6.43;;;;;;;;;;4897681;29;20423;-72
2023/09/06 10:00:51;;;;;;;11.13;6.67;;;;;;;;;;4897677;29;20782;-71
2023/09/06 10:03:18;;;;;;;9.17;6.10;;;;;;;;;;4897348;29;20510;-73
2023/09/06 10:05:45;;;;;;;8.67;6.20;;;;;;;;;;4904052;29;20430;-72
2023/09/06 10:08:12;;;;;;;11.20;6.30;;;;;;;;;;4913918;29;20502;-71
2023/09/06 10:10:39;;;;;;;9.13;6.37;;;;;;;;;;4897663;29;20411;-72
2023/09/06 10:13:07;;;;;;;8.13;5.90;;;;;;;;;;4897335;29;20494;-71
2023/09/06 10:15:34;;;;;;;11.60;6.63;;;;;;;;;;4897517;29;20828;-72
2023/09/06 10:18:00;;;;;;;11.43;6.63;;;;;;;;;;4897108;29;20416;-71
2023/09/06 10:20:27;;;;;;;9.33;6.20;;;;;;;;;;4896996;29;20427;-72
2023/09/06 10:22:55;;;;;;;8.50;6.00;;;;;;;;;;4889255;29;20454;-72
2023/09/06 10:25:21;;;;;;;13.20;6.70;;;;;;;;;;4878488;29;20898;-70
2023/09/06 10:27:48;;;;;;;6.93;5.90;;;;;;;;;;4878543;29;20424;-71
2023/09/06 10:30:17;;;;;;;11.70;6.70;;;;;;;;;;4878271;29;20488;-72
2023/09/06 10:32:43;;;;;;;11.03;5.77;;;;;;;;;;4878974;29;20440;-72
2023/09/06 10:35:21;;;;;;;9.00;5.90;;;;;;;;;;4886639;29;20474;-71
2023/09/06 10:38:06;;;;;;;10.03;6.40;;;;;;;;;;4901617;29;20433;-72
2023/09/06 10:40:48;;;;;;;11.57;6.53;;;;;;;;;;4878758;29;20420;-73
2023/09/06 10:43:14;;;;;;;8.33;6.40;;;;;;;;;;4878533;29;20432;-72
2023/09/06 10:45:40;;;;;;;10.90;6.57;;;;;;;;;;4878480;29;20415;-72
2023/09/06 10:48:09;;;;;;;7.43;5.60;;;;;;;;;;4878142;29;20492;-71
2023/09/06 10:50:36;;;;;;;8.23;5.77;;;;;;;;;;4880405;29;20749;-72
2023/09/06 10:53:02;;;;;;;9.40;6.50;;;;;;;;;;4887889;29;20486;-71
2023/09/06 10:55:30;;;;;;;10.20;6.30;;;;;;;;;;4897133;29;20534;-70
2023/09/06 10:57:56;;;;;;;9.23;6.33;;;;;;;;;;4896988;29;20426;-68
2023/09/06 11:00:25;;;;;;;9.67;6.50;;;;;;;;;;4896981;29;20423;-71
2023/09/06 11:03:06;;;;;;;9.17;6.27;;;;;;;;;;4896898;29;20435;-71
2023/09/06 11:05:35;;;;;;;7.30;6.27;;;;;;;;;;4894997;29;20442;-72
2023/09/06 11:08:01;;;;;;;8.20;5.73;;;;;;;;;;4890632;29;20427;-72
2023/09/06 11:10:27;;;;;;;8.20;6.00;;;;;;;;;;4881839;29;20920;-71
2023/09/06 11:12:54;;;;;;;8.67;5.87;;;;;;;;;;4895533;29;20554;-71
2023/09/06 11:15:20;;;;;;;7.97;5.70;;;;;;;;;;4896417;29;20473;-70
2023/09/06 11:17:46;;;;;;;10.53;6.00;;;;;;;;;;4896763;29;20408;-70
2023/09/06 11:20:13;;;;;;;9.43;6.23;;;;;;;;;;4896621;29;20415;-74
2023/09/06 11:22:52;;;;;;;7.00;5.57;;;;;;;;;;4896727;29;20419;-71
2023/09/06 11:25:22;;;;;;;9.10;6.33;;;;;;;;;;4895280;29;20799;-71
2023/09/06 11:27:49;;;;;;;9.07;5.97;;;;;;;;;;4896879;29;20434;-71
2023/09/06 11:30:18;;;;;;;10.00;5.83;;;;;;;;;;4896136;29;20537;-70
2023/09/06 11:32:44;;;;;;;10.70;7.20;;;;;;;;;;4910563;29;20451;-72
2023/09/06 11:35:11;;;;;;;7.50;5.43;;;;;;;;;;4896299;29;20470;-72
2023/09/06 11:37:44;;;;;;;7.67;5.50;;;;;;;;;;4896747;29;20415;-72
2023/09/06 11:40:18;;;;;;;9.17;6.00;;;;;;;;;;4896267;29;20444;-73
2023/09/06 11:42:56;;;;;;;9.40;6.00;;;;;;;;;;4896823;29;20418;-72
2023/09/06 11:45:22;;;;;;;10.47;6.17;;;;;;;;;;4896456;29;20466;-74
2023/09/06 11:47:48;;;;;;;11.57;6.10;;;;;;;;;;4896315;29;20924;-69
2023/09/06 11:50:19;;;;;;;13.17;7.00;;;;;;;;;;4897537;29;20422;-70
2023/09/06 11:52:46;;;;;;;11.33;5.37;;;;;;;;;;4919967;29;20443;-70
2023/09/06 11:55:16;;;;;;;10.73;6.63;;;;;;;;;;4935539;29;20550;-70
2023/09/06 11:57:46;;;;;;;11.53;6.00;;;;;;;;;;4921296;29;20407;-70
2023/09/06 12:00:19;;;;;;;9.10;5.80;;;;;;;;;;4920413;29;20410;-70
2023/09/06 12:02:48;;;;;;;7.97;5.27;;;;;;;;;;4905950;29;20440;-70
2023/09/06 12:05:16;;;;;;;14.10;6.13;;;;;;;;;;4920429;29;20430;-75
2023/09/06 12:07:45;;;;;;;9.00;5.80;;;;;;;;;;4918891;29;20448;-70
2023/09/06 12:10:11;;;;;;;10.30;5.50;;;;;;;;;;4902513;29;20418;-69
2023/09/06 12:12:41;;;;;;;5.80;5.00;;;;;;;;;;4911999;29;20438;-71
2023/09/06 12:15:20;;;;;;;6.40;5.60;;;;;;;;;;4919165;23;20518;-70
2023/09/06 12:17:50;;;;;;;8.47;5.20;;;;;;;;;;4903211;29;20427;-70
2023/09/06 12:20:23;;;;;;;8.13;5.80;;;;;;;;;;4889983;29;20432;-70
2023/09/06 12:22:49;;;;;;;9.63;6.10;;;;;;;;;;4896110;29;20913;-70
2023/09/06 12:25:15;;;;;;;9.40;5.20;;;;;;;;;;4897809;29;20445;-71
2023/09/06 12:27:46;;;;;;;8.93;5.27;;;;;;;;;;4899015;29;20443;-70
2023/09/06 12:30:13;;;;;;;8.37;5.13;;;;;;;;;;4898580;29;20925;-70
2023/09/06 12:32:40;;;;;;;8.37;6.27;;;;;;;;;;4898768;29;20435;-71
2023/09/06 12:35:09;;;;;;;10.17;6.07;;;;;;;;;;4898909;29;20470;-70
2023/09/06 12:37:39;;;;;;;8.57;5.90;;;;;;;;;;4899048;29;20445;-70
2023/09/06 12:40:10;;;;;;;13.03;6.30;;;;;;;;;;4898723;29;20478;-69
2023/09/06 12:42:37;;;;;;;9.53;5.30;;;;;;;;;;4899110;29;20416;-69
2023/09/06 12:45:03;;;;;;;7.20;5.40;;;;;;;;;;4898824;29;20515;-70
2023/09/06 12:47:29;;;;;;;8.30;5.37;;;;;;;;;;4891874;29;20484;-71
2023/09/06 12:49:55;;;;;;;8.53;5.17;;;;;;;;;;4898692;29;20423;-69
2023/09/06 12:52:21;;;;;;;7.77;5.57;;;;;;;;;;4899303;29;20423;-69
2023/09/06 12:54:48;;;;;;;8.63;6.00;;;;;;;;;;4898982;29;20742;-69
2023/09/06 12:57:14;;;;;;;8.73;5.67;;;;;;;;;;4900447;29;20506;-70
2023/09/06 12:59:41;;;;;;;9.70;5.80;;;;;;;;;;4898940;29;20466;-69
2023/09/06 13:02:07;;;;;;;8.60;5.50;;;;;;;;;;4898152;29;20491;-70
2023/09/06 13:04:32;;;;;;;13.50;6.43;;;;;;;;;;4898084;29;20439;-70
2023/09/06 13:06:58;;;;;;;12.83;5.70;;;;;;;;;;4898308;29;20415;-70
2023/09/06 13:09:24;;;;;;;7.83;4.80;;;;;;;;;;4896828;29;20435;-70
2023/09/06 13:11:50;;;;;;;7.33;5.30;;;;;;;;;;4898215;29;20468;-71
2023/09/06 13:14:16;;;;;;;9.43;6.30;;;;;;;;;;4897154;29;20463;-72
2023/09/06 13:16:42;;;;;;;8.53;6.00;;;;;;;;;;4889050;29;20558;-71
2023/09/06 13:19:09;;;;;;;14.17;6.73;;;;;;;;;;4879030;29;20512;-68
2023/09/06 13:21:35;;;;;;;9.47;6.20;;;;;;;;;;4879674;29;20417;-71
2023/09/06 13:24:03;;;;;;;10.20;5.33;;;;;;;;;;4879161;29;20971;-71
2023/09/06 13:26:29;;;;;;;11.03;5.87;;;;;;;;;;4879791;29;20971;-70
2023/09/06 13:28:55;;;;;;;8.83;5.73;;;;;;;;;;4899461;29;20500;-71
2023/09/06 13:31:21;;;;;;;8.47;5.67;;;;;;;;;;4904708;29;20522;-71
2023/09/06 13:33:48;;;;;;;15.17;5.70;;;;;;;;;;4899051;29;20518;-69
2023/09/06 13:36:15;;;;;;;10.90;6.10;;;;;;;;;;4899540;29;20479;-70
2023/09/06 13:38:41;;;;;;;8.23;5.67;;;;;;;;;;4899806;29;20415;-70
2023/09/06 13:41:07;;;;;;;21.07;6.10;;;;;;;;;;4898760;29;20419;-70
2023/09/06 13:43:33;;;;;;;8.20;5.40;;;;;;;;;;4897912;29;20438;-73
2023/09/06 13:45:59;;;;;;;9.60;5.87;;;;;;;;;;4890284;29;20427;-71
2023/09/06 13:48:25;;;;;;;9.20;5.63;;;;;;;;;;4898110;29;20420;-69
2023/09/06 13:50:51;;;;;;;6.40;5.23;;;;;;;;;;4897782;29;20763;-71
2023/09/06 13:53:17;;;;;;;9.80;6.00;;;;;;;;;;4897702;29;20439;-70
2023/09/06 13:55:43;;;;;;;8.07;5.87;;;;;;;;;;4897613;29;20582;-70
2023/09/06 13:58:10;;;;;;;11.00;5.60;;;;;;;;;;4894832;29;20424;-70
2023/09/06 14:00:36;;;;;;;11.70;5.53;;;;;;;;;;4887366;29;20411;-70
2023/09/06 14:03:03;;;;;;;7.17;5.17;;;;;;;;;;4896151;29;20435;-70
2023/09/06 14:05:29;;;;;;;6.27;5.00;;;;;;;;;;4897487;29;20427;-70
2023/09/06 14:07:55;;;;;;;11.43;5.23;;;;;;;;;;4897341;29;20420;-70
2023/09/06 14:10:21;;;;;;;9.93;5.93;;;;;;;;;;4897782;29;20511;-70
2023/09/06 14:12:47;;;;;;;8.67;5.50;;;;;;;;;;4895054;29;20435;-70
2023/09/06 14:15:13;;;;;;;5.93;5.00;;;;;;;;;;4892315;29;20474;-70
2023/09/06 14:17:39;;;;;;;10.53;6.30;;;;;;;;;;4897638;29;20419;-72
2023/09/06 14:20:06;;;;;;;8.03;5.90;;;;;;;;;;4883010;29;20641;-70
2023/09/06 14:22:31;;;;;;;9.80;5.73;;;;;;;;;;4897524;29;20412;-70
2023/09/06 14:24:57;;;;;;;9.70;5.93;;;;;;;;;;4897181;29;20912;-70
2023/09/06 14:27:23;;;;;;;7.30;5.17;;;;;;;;;;4897188;29;20446;-71
2023/09/06 14:29:52;;;;;;;7.27;5.07;;;;;;;;;;4896658;29;20502;-70
2023/09/06 14:32:18;;;;;;;13.43;5.53;;;;;;;;;;4896993;29;20415;-71
2023/09/06 14:34:44;;;;;;;10.60;5.70;;;;;;;;;;4896746;29;20498;-70
2023/09/06 14:37:10;;;;;;;7.73;5.10;;;;;;;;;;4896831;29;20498;-71
2023/09/06 14:39:37;;;;;;;7.23;4.87;;;;;;;;;;4896780;29;20411;-73
2023/09/06 14:42:04;;;;;;;8.20;5.13;;;;;;;;;;4888583;29;20428;-71
2023/09/06 14:44:32;;;;;;;6.13;4.93;;;;;;;;;;4894209;29;20479;-71
2023/09/06 14:46:58;;;;;;;6.80;4.97;;;;;;;;;;4896506;29;20451;-70
2023/09/06 14:49:24;;;;;;;8.67;6.00;;;;;;;;;;4895528;29;20960;-71
2023/09/06 14:51:50;;;;;;;8.73;5.10;;;;;;;;;;4896619;29;20419;-70
2023/09/06 14:54:16;;;;;;;6.93;4.40;;;;;;;;;;4896488;29;20467;-70
2023/09/06 14:56:42;;;;;;;7.80;5.27;;;;;;;;;;4896739;29;20924;-70
2023/09/06 14:59:09;;;;;;;10.57;5.60;;;;;;;;;;4896456;29;20506;-70
2023/09/06 15:01:35;;;;;;;6.50;4.73;;;;;;;;;;4894984;29;20431;-70
2023/09/06 15:04:01;;;;;;;7.00;4.40;;;;;;;;;;4896369;29;20941;-69
2023/09/06 15:06:27;;;;;;;8.30;5.17;;;;;;;;;;4897060;29;20415;-69
2023/09/06 15:08:56;;;;;;;7.63;5.20;;;;;;;;;;4896338;29;20438;-70
2023/09/06 15:11:22;;;;;;;5.50;4.43;;;;;;;;;;4896372;29;20780;-71
2023/09/06 15:13:48;;;;;;;7.30;5.47;;;;;;;;;;4886307;29;20471;-71
2023/09/06 15:16:14;;;;;;;6.50;4.63;;;;;;;;;;4898010;29;20474;-72
2023/09/06 15:18:40;;;;;;;7.00;4.90;;;;;;;;;;4895288;29;20412;-71
2023/09/06 15:21:09;;;;;;;8.20;4.53;;;;;;;;;;4896769;29;20427;-73
2023/09/06 15:23:35;;;;;;;7.13;4.50;;;;;;;;;;4898606;29;20854;-73
2023/09/06 15:26:01;;;;;;;8.60;5.57;;;;;;;;;;4920897;29;20427;-72
2023/09/06 15:28:27;;;;;;;7.73;5.57;;;;;;;;;;4916981;29;20417;-73
2023/09/06 15:30:53;;;;;;;8.30;4.87;;;;;;;;;;4915846;29;20418;-73
2023/09/06 15:33:19;;;;;;;5.37;4.47;;;;;;;;;;4915164;29;20754;-73
2023/09/06 15:35:45;;;;;;;8.80;4.23;;;;;;;;;;4913162;29;20476;-73
2023/09/06 15:38:12;;;;;;;8.37;4.60;;;;;;;;;;4914625;29;20421;-72
2023/09/06 15:40:38;;;;;;;5.33;4.13;;;;;;;;;;4887777;29;20445;-72
2023/09/06 15:43:04;;;;;;;9.47;4.50;;;;;;;;;;4895063;29;20575;-72
2023/09/06 15:45:33;;;;;;;11.80;3.80;;;;;;;;;;4896803;29;20412;-71
2023/09/06 15:47:59;;;;;;;5.53;3.87;;;;;;;;;;4895957;29;20442;-72
2023/09/06 15:50:25;;;;;;;5.90;3.80;;;;;;;;;;4902240;29;20426;-71
2023/09/06 15:52:51;;;;;;;8.03;4.70;;;;;;;;;;4915054;29;20418;-71
2023/09/06 15:55:18;;;;;;;5.40;4.27;;;;;;;;;;4899496;29;20574;-71
2023/09/06 15:57:44;;;;;;;7.10;4.10;;;;;;;;;;4895960;29;20434;-70
2023/09/06 16:00:11;;;;;;;6.00;3.83;;;;;;;;;;4897349;29;20431;-71
2023/09/06 16:02:37;;;;;;;4.80;3.63;;;;;;;;;;4899490;29;20482;-71
2023/09/06 16:05:06;;;;;;;6.40;3.33;;;;;;;;;;4899886;29;20537;-72
2023/09/06 16:07:32;;;;;;;9.33;3.90;;;;;;;;;;4899664;29;20502;-71
2023/09/06 16:09:58;;;;;;;6.53;3.60;;;;;;;;;;4899519;29;20466;-71
2023/09/06 16:12:23;;;;;;;5.53;3.63;;;;;;;;;;4900168;29;20423;-71
2023/09/06 16:14:52;;;;;;;7.73;3.90;;;;;;;;;;4900057;29;20479;-71
2023/09/06 16:17:18;;;;;;;6.53;3.83;;;;;;;;;;4899879;29;20874;-70
2023/09/06 16:19:44;;;;;;;9.37;3.30;;;;;;;;;;4899356;29;20415;-71
2023/09/06 16:22:10;;;;;;;4.63;3.40;;;;;;;;;;4899664;29;20908;-71
2023/09/06 16:24:36;;;;;;;8.70;3.60;;;;;;;;;;4899345;29;20435;-70
2023/09/06 16:27:03;;;;;;;5.77;3.80;;;;;;;;;;4899005;29;20415;-70
2023/09/06 16:29:30;;;;;;;6.93;3.67;;;;;;;;;;4889216;29;20447;-70
2023/09/06 16:31:56;;;;;;;5.63;3.17;;;;;;;;;;4899295;29;20415;-71
2023/09/06 16:34:22;;;;;;;4.47;3.60;;;;;;;;;;4899045;29;20432;-70
2023/09/06 16:36:48;;;;;;;5.63;3.70;;;;;;;;;;4905847;29;20925;-71
2023/09/06 16:39:14;;;;;;;4.40;3.13;;;;;;;;;;4917010;29;20426;-71
2023/09/06 16:41:40;;;;;;;5.80;3.33;;;;;;;;;;4917073;29;20410;-71
2023/09/06 16:44:06;;;;;;;6.70;3.53;;;;;;;;;;4917301;29;20509;-70
2023/09/06 16:46:33;;;;;;;7.37;3.13;;;;;;;;;;4916881;29;20921;-71
2023/09/06 16:48:59;;;;;;;7.77;3.80;;;;;;;;;;4917538;29;20406;-71
2023/09/06 16:51:25;;;;;;;6.13;3.53;;;;;;;;;;4917276;29;20525;-71
2023/09/06 16:53:51;;;;;;;5.63;3.20;;;;;;;;;;4918162;29;20434;-71
2023/09/06 16:56:16;;;;;;;4.57;3.30;;;;;;;;;;4925107;29;20465;-71
2023/09/06 16:58:42;;;;;;;9.53;3.03;;;;;;;;;;4923030;29;20909;-71
2023/09/06 17:01:10;;;;;;;6.73;3.90;;;;;;;;;;4916822;29;20905;-70
2023/09/06 17:03:36;;;;;;;9.20;3.63;;;;;;;;;;4916999;29;20510;-70
2023/09/06 17:06:02;;;;;;;8.37;3.50;;;;;;;;;;4917309;29;20418;-70
2023/09/06 17:08:28;;;;;;;4.70;3.30;;;;;;;;;;4917206;29;20442;-70
2023/09/06 17:10:54;;;;;;;6.07;3.60;;;;;;;;;;4916047;29;20517;-70
2023/09/06 17:13:20;;;;;;;4.07;3.30;;;;;;;;;;4915023;29;20935;-70
2023/09/06 17:15:47;;;;;;;4.53;3.47;;;;;;;;;;4918712;29;20799;-70
2023/09/06 17:18:16;;;;;;;5.10;3.60;;;;;;;;;;4919623;29;20415;-70
2023/09/06 17:20:42;;;;;;;4.67;3.50;;;;;;;;;;4918562;29;20407;-70
2023/09/06 17:23:08;;;;;;;3.80;3.07;;;;;;;;;;4917497;29;20753;-69
2023/09/06 17:25:33;;;;;;;6.07;3.13;;;;;;;;;;4916424;29;20853;-70
2023/09/06 17:28:03;;;;;;;5.03;2.93;;;;;;;;;;4916526;29;20434;-69
2023/09/06 17:30:30;;;;;;;5.50;3.50;;;;;;;;;;4917080;29;20485;-70
2023/09/06 17:33:10;;;;;;;4.40;2.70;;;;;;;;;;4915639;29;20917;-69
2023/09/06 17:35:37;;;;;;;8.07;3.90;;;;;;;;;;4901877;29;20989;-70
2023/09/06 17:38:05;;;;;;;6.10;3.27;;;;;;;;;;4894348;29;20487;-70
2023/09/06 17:40:31;;;;;;;5.03;3.30;;;;;;;;;;4896254;29;20432;-70
2023/09/06 17:42:58;;;;;;;8.30;3.80;;;;;;;;;;4896496;29;20486;-70
2023/09/06 17:45:24;;;;;;;7.67;4.00;;;;;;;;;;4896646;29;20544;-70
2023/09/06 17:47:50;;;;;;;7.43;4.93;;;;;;;;;;4879795;29;20523;-69
2023/09/06 17:50:17;;;;;;;6.17;3.80;;;;;;;;;;4889696;29;20790;-70
2023/09/06 17:52:47;;;;;;;10.30;4.87;;;;;;;;;;4898098;29;20419;-70
2023/09/06 17:55:14;;;;;;;13.70;6.23;;;;;;;;;;4897681;29;20810;-69
2023/09/06 17:57:41;;;;;;;4.80;3.70;;;;;;;;;;4897453;29;20482;-71
2023/09/06 18:00:15;;;;;;;7.17;3.60;;;;;;;;;;4897672;29;20547;-70
2023/09/06 18:02:43;;;;;;;5.47;3.10;;;;;;;;;;4897799;29;20959;-70
2023/09/06 18:05:12;;;;;;;6.73;3.80;;;;;;;;;;4897947;29;20439;-70
2023/09/06 18:07:39;;;;;;;15.00;6.60;;;;;;;;;;4897664;29;20427;-70
2023/09/06 18:10:06;;;;;;;6.17;3.70;;;;;;;;;;4892824;29;20956;-70
2023/09/06 18:12:32;;;;;;;10.80;4.20;;;;;;;;;;4894733;29;20483;-70
2023/09/06 18:14:58;;;;;;;4.60;3.23;;;;;;;;;;4879372;29;20494;-70
2023/09/06 18:17:24;;;;;;;13.10;4.40;;;;;;;;;;4878284;29;20822;-69
2023/09/06 18:19:50;;;;;;;6.83;4.17;;;;;;;;;;4878355;29;20480;-69
2023/09/06 18:22:16;;;;;;;5.73;3.77;;;;;;;;;;4878294;29;20866;-70
2023/09/06 18:24:42;;;;;;;5.67;3.83;;;;;;;;;;4878512;29;20440;-69
2023/09/06 18:27:09;;;;;;;10.03;4.10;;;;;;;;;;4878550;29;20455;-70
2023/09/06 18:29:36;;;;;;;6.00;4.03;;;;;;;;;;4879445;29;20907;-69
2023/09/06 18:32:02;;;;;;;7.50;3.83;;;;;;;;;;4893698;29;20431;-68
2023/09/06 18:34:28;;;;;;;10.53;5.60;;;;;;;;;;4896816;29;20526;-70
2023/09/06 18:36:54;;;;;;;4.80;3.63;;;;;;;;;;4897047;29;20841;-70
2023/09/06 18:39:22;;;;;;;8.30;5.13;;;;;;;;;;4925517;29;20939;-69
2023/09/06 18:41:49;;;;;;;9.37;4.40;;;;;;;;;;4916053;29;20410;-70
2023/09/06 18:44:15;;;;;;;6.00;3.77;;;;;;;;;;4913421;29;20803;-69
2023/09/06 18:46:41;;;;;;;15.07;6.70;;;;;;;;;;4897355;29;20438;-69
2023/09/06 18:49:07;;;;;;;8.37;5.30;;;;;;;;;;4897972;29;20937;-69
2023/09/06 18:51:36;;;;;;;11.10;5.60;;;;;;;;;;4897384;29;20788;-69
2023/09/06 18:54:02;;;;;;;14.13;5.37;;;;;;;;;;4889476;29;20806;-68
2023/09/06 18:56:28;;;;;;;12.30;6.13;;;;;;;;;;4881287;29;20509;-70
2023/09/06 18:58:54;;;;;;;8.10;5.20;;;;;;;;;;4884931;29;20479;-69
2023/09/06 19:01:20;;;;;;;12.07;5.60;;;;;;;;;;4896722;29;20502;-69
2023/09/06 19:03:46;;;;;;;10.10;6.00;;;;;;;;;;4896522;29;20443;-69
2023/09/06 19:06:13;;;;;;;8.90;5.30;;;;;;;;;;4896888;29;20502;-69
2023/09/06 19:08:39;;;;;;;8.13;5.07;;;;;;;;;;4896703;29;20498;-72
2023/09/06 19:11:05;;;;;;;9.37;5.30;;;;;;;;;;4889731;29;20438;-69
2023/09/06 19:13:31;;;;;;;9.57;5.10;;;;;;;;;;4890771;29;20542;-71
2023/09/06 19:15:59;;;;;;;9.37;4.80;;;;;;;;;;4896587;29;20475;-69
2023/09/06 19:18:25;;;;;;;14.20;6.00;;;;;;;;;;4896680;29;20432;-71
2023/09/06 19:20:51;;;;;;;10.33;4.87;;;;;;;;;;4896664;29;20471;-70
2023/09/06 19:23:20;;;;;;;9.47;4.80;;;;;;;;;;4896558;29;20439;-71
2023/09/06 19:25:51;;;;;;;8.90;4.80;;;;;;;;;;4896440;29;20415;-71
2023/09/06 19:28:18;;;;;;;9.90;4.57;;;;;;;;;;4896384;29;20932;-70
2023/09/06 19:30:45;;;;;;;8.20;5.27;;;;;;;;;;4910606;29;20499;-70
2023/09/06 19:33:11;;;;;;;10.90;5.23;;;;;;;;;;4896791;29;20418;-70
2023/09/06 19:35:37;;;;;;;10.33;6.13;;;;;;;;;;4899126;29;20466;-71
2023/09/06 19:38:04;;;;;;;10.37;6.30;;;;;;;;;;4898023;29;20445;-69
2023/09/06 19:40:30;;;;;;;10.43;5.87;;;;;;;;;;4909678;29;21020;-69
2023/09/06 19:42:56;;;;;;;9.37;5.47;;;;;;;;;;4909213;29;20470;-70
2023/09/06 19:45:22;;;;;;;9.07;5.60;;;;;;;;;;4909311;29;20507;-69
2023/09/06 19:47:48;;;;;;;11.93;5.07;;;;;;;;;;4902608;29;20788;-69
2023/09/06 19:50:14;;;;;;;9.30;5.47;;;;;;;;;;4905177;29;20430;-70
2023/09/06 19:52:40;;;;;;;9.73;5.30;;;;;;;;;;4900526;29;20518;-70
2023/09/06 19:55:07;;;;;;;7.53;4.70;;;;;;;;;;4899726;29;20463;-70
2023/09/06 19:57:33;;;;;;;6.43;4.40;;;;;;;;;;4899943;29;20419;-70
2023/09/06 20:00:00;;;;;;;13.60;4.83;;;;;;;;;;4897777;29;20459;-70
2023/09/06 20:02:26;;;;;;;7.10;4.30;;;;;;;;;;4900130;29;20425;-70
2023/09/06 20:04:52;;;;;;;11.93;5.77;;;;;;;;;;4899347;29;20443;-71
2023/09/06 20:07:18;;;;;;;8.97;5.27;;;;;;;;;;4899035;29;20491;-71
2023/09/06 20:09:44;;;;;;;9.60;5.33;;;;;;;;;;4897947;29;20438;-70
2023/09/06 20:12:10;;;;;;;8.33;5.40;;;;;;;;;;4897751;29;20502;-70
2023/09/06 20:14:36;;;;;;;10.37;5.57;;;;;;;;;;4898250;29;20473;-70
2023/09/06 20:17:03;;;;;;;9.53;5.00;;;;;;;;;;4901060;29;20417;-70
2023/09/06 20:19:29;;;;;;;10.43;6.23;;;;;;;;;;4901472;29;20798;-71
2023/09/06 20:21:55;;;;;;;7.90;4.80;;;;;;;;;;4899940;29;20430;-71
2023/09/06 20:24:21;;;;;;;11.77;5.80;;;;;;;;;;4899784;29;20442;-71
2023/09/06 20:26:47;;;;;;;9.87;5.63;;;;;;;;;;4901780;29;20428;-71
2023/09/06 20:29:16;;;;;;;8.47;5.73;;;;;;;;;;4899427;29;20415;-72
2023/09/06 20:31:42;;;;;;;9.27;5.57;;;;;;;;;;4906974;29;20447;-71
2023/09/06 20:34:09;;;;;;;9.17;5.13;;;;;;;;;;4901330;29;20431;-71
2023/09/06 20:36:34;;;;;;;8.20;5.23;;;;;;;;;;4899081;29;20463;-70